Welcome to Northern Hawkes Bay. New Zealand.
PWS Header
      nz Flag



Hit Counter


W3C Valid W3C Valid logo


    Wairoa

Select any of the Stations below to visit their websites.










Historic Data from Weather Underground
Select the location of interest below. Wairoa is the default. Please have patience, this Data is slow to load in.
Northern Hawkes Bay Historical Data
Daily Summary for April 4, 2017 Units:  English    Metric   Both
« Previous Day
Next Day »
Daily Weekly Monthly Yearly Custom
  High: Low: Average:
Temperature: 62.1 °F 57.6 °F 59.5 °F
Dew Point: 61.5 °F 56.3 °F 59 °F
Humidity: 99% 95% 98%
Wind Speed: 16.8mph 0mph 7.4mph
Wind Gust: 28.9mph - -
Wind- - SSE
Pressure: 30.2 in 30 in -
Precipitation: 2.28 in    
Historical Graphs
 
 
Tabular Data for April 4, 2017
Time Temperature Dew Point Pressure Wind Wind Speed Wind Gust Humidity Rainfall Rate (Hourly) solar
00:03 59.9 °F 59.5 °F 30.2 in West 6.9 mph 15.9 mph 99% 0.22 in 0 W/m2
00:09 61.3 °F 60.8 °F 30.2 in WSW 8.3 mph 16.8 mph 98% 0.21 in 0 W/m2
00:15 61.5 °F 61 °F 30.2 in SW 8.3 mph 16.8 mph 98% 0.2 in 0 W/m2
00:21 61.2 °F 60.6 °F 30.2 in SW 9.8 mph 22.1 mph 98% 0.19 in 0 W/m2
00:27 60.3 °F 60.1 °F 30.2 in WSW 6 mph 22.1 mph 99% 0.18 in 0 W/m2
00:33 60.3 °F 60.1 °F 30.2 in SW 3.8 mph 12.1 mph 99% 0.17 in 0 W/m2
00:39 60.6 °F 60.4 °F 30.2 in SW 5.4 mph 11.4 mph 99% 0.17 in 0 W/m2
00:45 60.8 °F 60.3 °F 30.2 in SW 6 mph 11.4 mph 98% 0.18 in 0 W/m2
00:51 61.3 °F 60.8 °F 30.2 in SW 12.1 mph 17.4 mph 98% 0.19 in 0 W/m2
00:57 61.3 °F 60.8 °F 30.2 in SW 8.3 mph 17.4 mph 98% 0.19 in 0 W/m2
01:03 61.3 °F 60.8 °F 30.2 in SSW 9.8 mph 19 mph 98% 0.19 in 0 W/m2
01:09 61.2 °F 60.6 °F 30.2 in SW 10.7 mph 18.3 mph 98% 0.19 in 0 W/m2
01:15 60.8 °F 60.3 °F 30.2 in SW 8.3 mph 19 mph 98% 0.19 in 0 W/m2
01:21 60.8 °F 60.3 °F 30.2 in SW 12.1 mph 19 mph 98% 0.19 in 0 W/m2
01:27 59.9 °F 59.5 °F 30.2 in WSW 9.8 mph 15.9 mph 99% 0.18 in 0 W/m2
01:33 59.9 °F 59.5 °F 30.2 in WSW 9.8 mph 15.2 mph 99% 0.18 in 0 W/m2
01:39 59.9 °F 59.5 °F 30.2 in SW 9.2 mph 15.2 mph 99% 0.17 in 0 W/m2
01:45 59.7 °F 59.5 °F 30.2 in WSW 6.9 mph 16.8 mph 99% 0.14 in 0 W/m2
01:51 59.7 °F 59.5 °F 30.2 in WSW 6.9 mph 13 mph 99% 0.12 in 0 W/m2
01:57 59.9 °F 59.5 °F 30.2 in WSW 3.1 mph 12.1 mph 99% 0.11 in 0 W/m2
02:03 60.3 °F 60.1 °F 30.1 in SW 6 mph 11.4 mph 99% 0.08 in 0 W/m2
02:09 60.4 °F 60.3 °F 30.1 in WSW 5.4 mph 10.7 mph 99% 0.08 in 0 W/m2
02:15 60.6 °F 60.4 °F 30.1 in WSW 9.8 mph 14.5 mph 99% 0.08 in 0 W/m2
02:21 59.9 °F 59.5 °F 30.1 in West 6 mph 14.5 mph 99% 0.08 in 0 W/m2
02:27 59.9 °F 59.5 °F 30.1 in WSW 3.8 mph 13 mph 99% 0.09 in 0 W/m2
02:33 59.9 °F 59.5 °F 30.1 in WSW 2.2 mph 10.7 mph 99% 0.09 in 0 W/m2
02:39 60.8 °F 60.3 °F 30.1 in SW 7.6 mph 12.1 mph 98% 0.09 in 0 W/m2
02:45 61.3 °F 60.8 °F 30.1 in SW 8.3 mph 16.8 mph 98% 0.12 in 0 W/m2
02:51 61.3 °F 60.8 °F 30.1 in SW 9.2 mph 16.8 mph 98% 0.12 in 0 W/m2
02:57 61 °F 60.4 °F 30.1 in SSW 10.7 mph 17.4 mph 98% 0.12 in 0 W/m2
03:03 60.8 °F 60.3 °F 30.1 in SW 8.3 mph 17.4 mph 98% 0.13 in 0 W/m2
03:09 61 °F 60.4 °F 30.1 in SW 10.7 mph 17.4 mph 98% 0.13 in 0 W/m2
03:15 61 °F 60.4 °F 30.1 in SSW 7.6 mph 17.4 mph 98% 0.12 in 0 W/m2
03:21 61 °F 60.4 °F 30.1 in SSW 9.8 mph 15.9 mph 98% 0.12 in 0 W/m2
03:27 60.8 °F 60.3 °F 30.1 in SSW 11.4 mph 16.8 mph 98% 0.12 in 0 W/m2
03:33 61 °F 60.4 °F 30.1 in SSW 8.3 mph 17.4 mph 98% 0.11 in 0 W/m2
03:39 61 °F 60.4 °F 30.1 in SSW 12.1 mph 17.4 mph 98% 0.09 in 0 W/m2
03:45 60.8 °F 60.3 °F 30.1 in SW 8.3 mph 17.4 mph 98% 0.09 in 0 W/m2
03:51 60.8 °F 60.3 °F 30.1 in SW 6 mph 16.8 mph 98% 0.11 in 0 W/m2
03:57 61.3 °F 60.8 °F 30.1 in SSW 4.5 mph 15.2 mph 98% 0.12 in 0 W/m2
04:03 61.7 °F 61.2 °F 30.1 in South 5.4 mph 13 mph 98% 0.13 in 0 W/m2
04:09 61.7 °F 61.2 °F 30.1 in South 5.4 mph 13 mph 98% 0.14 in 0 W/m2
04:15 61.9 °F 61.3 °F 30.1 in SSW 7.6 mph 10.7 mph 98% 0.15 in 0 W/m2
04:21 61.7 °F 61.2 °F 30.1 in South 7.6 mph 11.4 mph 98% 0.17 in 0 W/m2
04:27 61.7 °F 61.2 °F 30.1 in SSW 6.9 mph 11.4 mph 98% 0.17 in 0 W/m2
04:33 61.5 °F 61 °F 30.1 in South 8.3 mph 13 mph 98% 0.17 in 0 W/m2
04:39 61.9 °F 61.3 °F 30.1 in South 6.9 mph 13 mph 98% 0.15 in 0 W/m2
04:45 61.9 °F 61.3 °F 30.1 in SSW 4.5 mph 10.7 mph 98% 0.15 in 0 W/m2
04:51 61.9 °F 61.3 °F 30.1 in SSW 2.2 mph 9.8 mph 98% 0.14 in 0 W/m2
04:57 62.1 °F 61.5 °F 30.1 in Calm   6.9 mph 98% 0.12 in 0 W/m2
05:03 62.1 °F 61.5 °F 30.1 in SSE 6 mph 12.1 mph 98% 0.13 in 0 W/m2
05:09 62.1 °F 61.5 °F 30.1 in South 6.9 mph 12.1 mph 98% 0.12 in 0 W/m2
05:15 62.1 °F 61.5 °F 30.1 in SSE 5.4 mph 13 mph 98% 0.12 in 0 W/m2
05:21 61.9 °F 61.3 °F 30.1 in SE 2.2 mph 13 mph 98% 0.09 in 0 W/m2
05:27 61.9 °F 61.3 °F 30.1 in SSE 8.3 mph 12.1 mph 98% 0.08 in 0 W/m2
05:33 61.7 °F 61.2 °F 30.1 in SSE 9.2 mph 15.2 mph 98% 0.08 in 0 W/m2
05:39 61.7 °F 61.2 °F 30.1 in SSE 5.4 mph 15.2 mph 98% 0.08 in 0 W/m2
05:45 61.7 °F 61.2 °F 30.1 in South 9.8 mph 14.5 mph 98% 0.08 in 0 W/m2
05:51 61.5 °F 61 °F 30.1 in South 11.4 mph 16.8 mph 98% 0.07 in 0 W/m2
05:57 61.5 °F 61 °F 30.1 in South 6 mph 16.8 mph 98% 0.07 in 0 W/m2
06:03 61.5 °F 61 °F 30.1 in SSE 6 mph 16.8 mph 98% 0.02 in 0 W/m2
06:09 61.3 °F 60.8 °F 30.1 in SSE 12.1 mph 16.8 mph 98% 0.02 in 0 W/m2
06:15 61.3 °F 60.8 °F 30.1 in SSE 4.5 mph 17.4 mph 98% 0.01 in 0 W/m2
06:21 61.2 °F 60.6 °F 30.1 in SSE 8.3 mph 19 mph 98% 0.02 in 0 W/m2
06:27 61.3 °F 60.8 °F 30.1 in SSE 11.4 mph 19 mph 98% 0.02 in 0 W/m2
06:33 61.2 °F 60.6 °F 30.1 in SSE 8.3 mph 18.3 mph 98% 0.02 in 0 W/m2
06:39 61.2 °F 60.6 °F 30.1 in SE 6.9 mph 13.6 mph 98% 0.02 in 0 W/m2
07:01 61 °F 60.4 °F 30.2 in SSE 9.8 mph 15.2 mph 98% 0.02 in 1 W/m2
07:07 61 °F 60.4 °F 30.1 in SSE 5.4 mph 17.4 mph 98% 0.02 in 9 W/m2
07:13 60.8 °F 60.3 °F 30.1 in SE 9.2 mph 17.4 mph 98% 0.05 in 15 W/m2
07:19 60.8 °F 60.3 °F 30.1 in SSE 6 mph 18.3 mph 98% 0.05 in 33 W/m2
07:25 60.8 °F 60.3 °F 30.1 in SE 8.3 mph 15.9 mph 98% 0.07 in 27 W/m2
07:31 60.6 °F 60.4 °F 30.2 in SSE 7.6 mph 18.3 mph 99% 0.08 in 26 W/m2
07:37 60.3 °F 60.1 °F 30.1 in SE 6 mph 16.8 mph 99% 0.08 in 53 W/m2
07:43 60.6 °F 60.4 °F 30.2 in SE 9.2 mph 16.8 mph 99% 0.08 in 45 W/m2
07:49 60.3 °F 60.1 °F 30.2 in SE 6 mph 18.3 mph 99% 0.08 in 22 W/m2
07:55 60.6 °F 60.4 °F 30.2 in SSE 7.6 mph 17.4 mph 99% 0.08 in 33 W/m2
08:01 60.4 °F 60.3 °F 30.2 in SE 6 mph 18.3 mph 99% 0.07 in 33 W/m2
08:07 60.4 °F 60.3 °F 30.2 in SSE 8.3 mph 16.8 mph 99% 0.07 in 32 W/m2
08:13 60.4 °F 60.3 °F 30.2 in SSE 5.4 mph 15.2 mph 99% 0.07 in 42 W/m2
08:19 60.8 °F 60.3 °F 30.2 in SSE 7.6 mph 15.9 mph 98% 0.06 in 36 W/m2
08:25 60.8 °F 60.3 °F 30.2 in SE 12.1 mph 21.3 mph 98% 0.06 in 29 W/m2
08:31 60.1 °F 59.7 °F 30.2 in ESE 5.4 mph 21.3 mph 99% 0.07 in 32 W/m2
08:37 60.3 °F 60.1 °F 30.2 in SE 2.2 mph 15.9 mph 99% 0.09 in 47 W/m2
08:43 60.3 °F 60.1 °F 30.2 in SE 9.2 mph 11.4 mph 99% 0.12 in 40 W/m2
08:49 60.6 °F 60.4 °F 30.2 in SSE 7.6 mph 15.9 mph 99% 0.17 in 48 W/m2
08:55 60.6 °F 60.4 °F 30.2 in SSE 11.4 mph 18.3 mph 99% 0.19 in 50 W/m2
09:01 60.3 °F 60.1 °F 30.2 in SSE 10.7 mph 19.7 mph 99% 0.21 in 58 W/m2
09:07 60.3 °F 60.1 °F 30.2 in SSE 10.7 mph 19.7 mph 99% 0.21 in 79 W/m2
09:13 60.3 °F 60.1 °F 30.2 in SSE 12.1 mph 20.6 mph 99% 0.22 in 63 W/m2
09:19 60.3 °F 60.1 °F 30.2 in SSE 9.8 mph 20.6 mph 99% 0.22 in 71 W/m2
09:25 60.3 °F 60.1 °F 30.2 in SSE 6 mph 19 mph 99% 0.24 in 53 W/m2
09:31 60.3 °F 60.1 °F 30.2 in SSE 8.3 mph 19 mph 99% 0.24 in 57 W/m2
09:37 60.1 °F 59.7 °F 30.2 in South 7.6 mph 23.5 mph 99% 0.2 in 84 W/m2
09:43 59.9 °F 59.5 °F 30.2 in South 9.8 mph 19 mph 99% 0.21 in 70 W/m2
09:49 59.7 °F 59.5 °F 30.2 in South 13.6 mph 20.6 mph 99% 0.17 in 97 W/m2
09:55 59.9 °F 59.5 °F 30.2 in SSE 13 mph 23.5 mph 99% 0.15 in 59 W/m2
10:01 60.1 °F 59.7 °F 30.2 in SSE 5.4 mph 23.5 mph 99% 0.13 in 86 W/m2
10:07 60.1 °F 59.7 °F 30.2 in SSE 13 mph 22.1 mph 99% 0.13 in 89 W/m2
10:13 59.9 °F 59.5 °F 30.2 in SSE 12.1 mph 22.1 mph 99% 0.12 in 84 W/m2
10:19 59.4 °F 59.2 °F 30.2 in South 10.7 mph 21.3 mph 99% 0.11 in 107 W/m2
10:25 59.5 °F 59.4 °F 30.2 in SSE 10.7 mph 21.3 mph 99% 0.11 in 99 W/m2
10:31 59.5 °F 59.4 °F 30.2 in SSE 13 mph 21.3 mph 99% 0.09 in 63 W/m2
10:37 59.2 °F 58.8 °F 30.2 in SSE 16.8 mph 23.5 mph 99% 0.12 in 102 W/m2
10:43 59.2 °F 58.8 °F 30.2 in SSE 10.7 mph 23.5 mph 99% 0.09 in 115 W/m2
10:49 58.8 °F 58.6 °F 30.2 in SSE 7.6 mph 22.1 mph 99% 0.11 in 114 W/m2
10:55 58.6 °F 58.5 °F 30.2 in SSE 13 mph 25.9 mph 99% 0.11 in 133 W/m2
11:01 58.8 °F 58.6 °F 30.2 in SSE 9.8 mph 25.9 mph 99% 0.11 in 133 W/m2
11:07 58.6 °F 58.5 °F 30.2 in South 13 mph 21.3 mph 99% 0.11 in 124 W/m2
11:13 59 °F 58.6 °F 30.2 in SSE 6.9 mph 21.3 mph 99% 0.09 in 116 W/m2
11:19 58.8 °F 58.6 °F 30.2 in SE 12.1 mph 18.3 mph 99% 0.08 in 113 W/m2
11:25 59.2 °F 58.6 °F 30.2 in SE 13 mph 22.1 mph 98% 0.08 in 149 W/m2
11:31 59.4 °F 58.8 °F 30.2 in SE 6 mph 22.1 mph 98% 0.07 in 145 W/m2
11:37 59.4 °F 58.5 °F 30.2 in SSE 9.8 mph 19 mph 97% 0.05 in 140 W/m2
11:43 59.4 °F 58.5 °F 30.2 in SSE 8.3 mph 21.3 mph 97% 0.05 in 110 W/m2
11:49 59.4 °F 58.5 °F 30.2 in SSE 9.8 mph 21.3 mph 97% 0.05 in 103 W/m2
11:55 59.5 °F 59 °F 30.2 in SSE 10.7 mph 17.4 mph 98% 0.05 in 128 W/m2
12:01 59.4 °F 58.8 °F 30.2 in SSE 15.2 mph 23.5 mph 98% 0.06 in 106 W/m2
12:07 59.4 °F 58.8 °F 30.2 in SSE 13 mph 23.5 mph 98% 0.06 in 115 W/m2
12:13 59.4 °F 58.8 °F 30.2 in SSE 8.3 mph 22.8 mph 98% 0.06 in 87 W/m2
12:19 59 °F 58.5 °F 30.2 in SSE 5.4 mph 22.1 mph 98% 0.05 in 70 W/m2
12:25 59.2 °F 58.3 °F 30.2 in South 14.5 mph 24.4 mph 97% 0.05 in 68 W/m2
12:33 59.4 °F 58.5 °F 30.2 in SSE 8.3 mph 22.1 mph 97% 0.05 in 80 W/m2
12:39 59.2 °F 58.3 °F 30.2 in SSE 13.6 mph 28.9 mph 97% 0.07 in 107 W/m2
12:45 59.2 °F 58.3 °F 30.2 in SE 7.6 mph 28.9 mph 97% 0.08 in 93 W/m2
12:51 58.8 °F 58.6 °F 30.2 in SE 6.9 mph 20.6 mph 99% 0.09 in 86 W/m2
12:57 59 °F 58.5 °F 30.2 in SSE 11.4 mph 20.6 mph 98% 0.09 in 97 W/m2
13:03 59 °F 58.5 °F 30.2 in SSE 9.8 mph 19.7 mph 98% 0.08 in 99 W/m2
13:09 59.2 °F 58.3 °F 30.2 in South 9.8 mph 19.7 mph 97% 0.07 in 73 W/m2
13:15 58.5 °F 57.6 °F 30.2 in SSE 12.1 mph 19.7 mph 97% 0.09 in 88 W/m2
13:21 58.6 °F 58.1 °F 30.2 in SSE 9.2 mph 19 mph 98% 0.09 in 97 W/m2
13:27 58.8 °F 57.9 °F 30.2 in SSE 6.9 mph 21.3 mph 97% 0.11 in 105 W/m2
13:33 58.8 °F 57.9 °F 30.2 in SSE 12.1 mph 21.3 mph 97% 0.13 in 87 W/m2
13:39 58.6 °F 57.7 °F 30.2 in SSE 9.8 mph 25.1 mph 97% 0.12 in 99 W/m2
13:45 58.6 °F 57.7 °F 30.2 in SE 9.8 mph 25.1 mph 97% 0.09 in 87 W/m2
13:51 58.6 °F 57.7 °F 30.2 in ESE 3.8 mph 18.3 mph 97% 0.09 in 64 W/m2
13:57 58.5 °F 57.4 °F 30.2 in ESE 6.9 mph 21.3 mph 96% 0.09 in 85 W/m2
14:03 58.5 °F 57.4 °F 30.2 in SE 10.7 mph 21.3 mph 96% 0.09 in 56 W/m2
14:09 57.7 °F 56.3 °F 30.2 in SSE 8.3 mph 19.7 mph 95% 0.11 in 80 W/m2
14:15 58.1 °F 56.7 °F 30.2 in SE 6.9 mph 19.7 mph 95% 0.09 in 47 W/m2
14:21 58.1 °F 57 °F 30.2 in ESE 8.3 mph 18.3 mph 96% 0.11 in 61 W/m2
14:27 58.1 °F 57 °F 30.2 in SE 6.9 mph 25.1 mph 96% 0.11 in 64 W/m2
14:33 58.1 °F 57 °F 30.2 in SE 4.5 mph 15.2 mph 96% 0.08 in 54 W/m2
14:39 58.1 °F 57 °F 30.2 in SSE 5.4 mph 13.6 mph 96% 0.09 in 55 W/m2
14:45 58.1 °F 57 °F 30.2 in SSE 5.4 mph 17.4 mph 96% 0.09 in 60 W/m2
14:51 58.1 °F 57.4 °F 30.2 in SE 12.1 mph 17.4 mph 97% 0.09 in 33 W/m2
14:57 58.3 °F 57.4 °F 30.2 in SE 9.8 mph 15.2 mph 97% 0.09 in 32 W/m2
15:03 57.7 °F 56.8 °F 30.2 in ESE 4.5 mph 14.5 mph 97% 0.09 in 54 W/m2
15:09 57.9 °F 57 °F 30.2 in SE 9.2 mph 16.8 mph 97% 0.08 in 49 W/m2
15:15 57.9 °F 57.4 °F 30.2 in SE 6.9 mph 16.8 mph 98% 0.07 in 50 W/m2
15:21 57.9 °F 57 °F 30.2 in SE 6 mph 15.9 mph 97% 0.08 in 41 W/m2
15:27 58.1 °F 57.6 °F 30.2 in ESE 6 mph 15.2 mph 98% 0.07 in 36 W/m2
15:33 58.3 °F 57.7 °F 30.2 in SE 4.5 mph 17.4 mph 98% 0.06 in 47 W/m2
15:39 58.3 °F 57.4 °F 30.2 in SSE 5.4 mph 17.4 mph 97% 0.05 in 39 W/m2
15:45 58.5 °F 57.6 °F 30.2 in SE 4.5 mph 15.2 mph 97% 0.06 in 45 W/m2
15:51 58.3 °F 57.4 °F 30.2 in ESE 4.5 mph 18.3 mph 97% 0.06 in 20 W/m2
15:57 58.3 °F 57.4 °F 30.2 in SE 9.2 mph 18.3 mph 97% 0.05 in 17 W/m2
16:03 57.6 °F 56.7 °F 30.2 in ESE 6.9 mph 15.9 mph 97% 0.06 in 31 W/m2
16:09 57.9 °F 57 °F 30.1 in SE 7.6 mph 16.8 mph 97% 0.07 in 33 W/m2
16:15 58.1 °F 57.4 °F 30.2 in SE 3.1 mph 16.8 mph 97% 0.06 in 28 W/m2
16:21 58.5 °F 57.6 °F 30.2 in SE 4.5 mph 13.6 mph 97% 0.06 in 14 W/m2
16:27 58.5 °F 57.6 °F 30.2 in ESE 5.4 mph 15.9 mph 97% 0.07 in 13 W/m2
16:33 58.5 °F 57.6 °F 30.2 in ESE 13 mph 20.6 mph 97% 0.08 in 13 W/m2
16:39 57.7 °F 56.8 °F 30.2 in SE 4.5 mph 20.6 mph 97% 0.09 in 16 W/m2
16:45 57.6 °F 56.5 °F 30.2 in SE 3.8 mph 14.5 mph 96% 0.08 in 17 W/m2
16:51 57.7 °F 56.7 °F 30.2 in ESE 4.5 mph 13.6 mph 96% 0.08 in 15 W/m2
16:57 58.1 °F 57.4 °F 30.2 in ESE 4.5 mph 13.6 mph 97% 0.12 in 6 W/m2
17:03 57.9 °F 57 °F 30.2 in ESE 5.4 mph 11.4 mph 97% 0.11 in 13 W/m2
17:09 57.9 °F 57.4 °F 30.2 in ESE 6.9 mph 11.4 mph 98% 0.12 in 8 W/m2
17:15 57.7 °F 57.2 °F 30.2 in ESE 3.1 mph 11.4 mph 98% 0.12 in 4 W/m2
17:21 57.9 °F 57.4 °F 30.2 in East 6 mph 10.7 mph 98% 0.13 in 4 W/m2
17:27 57.9 °F 57.4 °F 30.2 in ESE 4.5 mph 10.7 mph 98% 0.12 in 1 W/m2
17:33 58.1 °F 57.7 °F 30.2 in ESE 9.8 mph 13 mph 99% 0.12 in 4 W/m2
17:39 57.7 °F 57.2 °F 30.2 in ESE 6.9 mph 13 mph 98% 0.12 in 4 W/m2
17:45 57.9 °F 57 °F 30.2 in ESE 6 mph 15.9 mph 97% 0.12 in 1 W/m2
17:51 57.9 °F 57 °F 30.1 in East 6.9 mph 15.9 mph 97% 0.11 in 0 W/m2
17:57 58.1 °F 57.4 °F 30.1 in East 4.5 mph 13.6 mph 97% 0.07 in 0 W/m2
18:03 58.1 °F 57.4 °F 30.1 in SE 5.4 mph 13.6 mph 97% 0.06 in 0 W/m2
18:09 58.3 °F 57.4 °F 30.2 in ESE 7.6 mph 12.1 mph 97% 0.05 in 0 W/m2
18:15 58.5 °F 57.6 °F 30.1 in ESE 4.5 mph 13 mph 97% 0.05 in 0 W/m2
18:21 58.6 °F 58.1 °F 30.1 in SE 6.9 mph 17.4 mph 98% 0.04 in 0 W/m2
18:27 58.8 °F 58.3 °F 30.1 in SSE 7.6 mph 15.2 mph 98% 0.04 in 0 W/m2
18:33 58.5 °F 57.9 °F 30.1 in SSE 6 mph 15.9 mph 98% 0.04 in 0 W/m2
18:39 58.5 °F 57.9 °F 30.2 in SE 9.2 mph 15.9 mph 98% 0.02 in 0 W/m2
18:45 58.3 °F 57.7 °F 30.2 in SE 6 mph 18.3 mph 98% 0.02 in 0 W/m2
18:51 58.3 °F 57.9 °F 30.1 in SE 5.4 mph 18.3 mph 99% 0.04 in 0 W/m2
18:57 58.3 °F 57.9 °F 30.1 in SE 4.5 mph 15.2 mph 99% 0.06 in 0 W/m2
19:03 58.3 °F 57.9 °F 30.1 in ESE 3.1 mph 12.1 mph 99% 0.07 in 0 W/m2
19:09 58.3 °F 57.9 °F 30.2 in ESE 2.2 mph 7.6 mph 99% 0.08 in 0 W/m2
19:15 58.3 °F 57.9 °F 30.1 in ESE 4.5 mph 9.2 mph 99% 0.07 in 0 W/m2
19:21 58.3 °F 57.9 °F 30.1 in ESE 3.8 mph 13 mph 99% 0.08 in 0 W/m2
19:27 58.3 °F 57.9 °F 30.1 in ESE 4.5 mph 13 mph 99% 0.08 in 0 W/m2
19:33 57.9 °F 57.7 °F 30.1 in ESE 1.6 mph 13.6 mph 99% 0.07 in 0 W/m2
19:39 57.7 °F 57.6 °F 30.1 in ESE 9.2 mph 12.1 mph 99% 0.08 in 0 W/m2
19:45 57.7 °F 57.6 °F 30.2 in ESE 3.8 mph 12.1 mph 99% 0.09 in 0 W/m2
19:51 57.9 °F 57.7 °F 30.2 in ESE 4.5 mph 11.4 mph 99% 0.08 in 0 W/m2
19:57 57.9 °F 57.7 °F 30.1 in ESE 3.8 mph 8.3 mph 99% 0.06 in 0 W/m2
20:03 57.9 °F 57.7 °F 30.1 in ESE 3.1 mph 9.2 mph 99% 0.05 in 0 W/m2
20:09 57.9 °F 57.7 °F 30.1 in SE 3.8 mph 10.7 mph 99% 0.05 in 0 W/m2
20:15 57.9 °F 57.7 °F 30.1 in SE 4.5 mph 10.7 mph 99% 0.05 in 0 W/m2
20:21 57.9 °F 57.7 °F 30.1 in ESE 6 mph 9.8 mph 99% 0.05 in 0 W/m2
20:27 57.9 °F 57.7 °F 30.1 in ESE 3.8 mph 11.4 mph 99% 0.06 in 0 W/m2
20:33 58.3 °F 57.9 °F 30.1 in SE 1.6 mph 11.4 mph 99% 0.06 in 0 W/m2
20:39 58.3 °F 57.9 °F 30.1 in SE 3.1 mph 9.8 mph 99% 0.06 in 0 W/m2
20:45 58.3 °F 57.9 °F 30.1 in SE 4.5 mph 12.1 mph 99% 0.06 in 0 W/m2
20:51 58.3 °F 57.9 °F 30.1 in SE 5.4 mph 13 mph 99% 0.07 in 0 W/m2
20:57 58.1 °F 57.7 °F 30.1 in SE 2.2 mph 13 mph 99% 0.07 in 0 W/m2
21:03 58.3 °F 57.9 °F 30.1 in SE 6.9 mph 15.9 mph 99% 0.08 in 0 W/m2
21:09 58.3 °F 57.9 °F 30.1 in SE 2.2 mph 15.9 mph 99% 0.08 in 0 W/m2
21:15 58.5 °F 58.3 °F 30.1 in ESE 0.7 mph 11.4 mph 99% 0.07 in 0 W/m2
21:21 58.5 °F 58.3 °F 30.1 in ESE 4.5 mph 14.5 mph 99% 0.07 in 0 W/m2
21:27 58.5 °F 58.3 °F 30.1 in SE 5.4 mph 14.5 mph 99% 0.06 in 0 W/m2
21:33 58.5 °F 58.3 °F 30.1 in SE 4.5 mph 15.2 mph 99% 0.06 in 0 W/m2
21:39 58.3 °F 57.9 °F 30.1 in SSE 4.5 mph 13 mph 99% 0.07 in 0 W/m2
21:45 58.3 °F 57.9 °F 30.1 in ESE 1.6 mph 13 mph 99% 0.06 in 0 W/m2
21:51 58.5 °F 58.3 °F 30.1 in SE 6 mph 12.1 mph 99% 0.05 in 0 W/m2
21:57 58.6 °F 58.5 °F 30.1 in SSE 8.3 mph 14.5 mph 99% 0.06 in 0 W/m2
22:03 58.5 °F 58.3 °F 30.1 in SSE 4.5 mph 15.2 mph 99% 0.05 in 0 W/m2
22:09 58.8 °F 58.6 °F 30.1 in SSE 5.4 mph 11.4 mph 99% 0.05 in 0 W/m2
22:15 58.6 °F 58.5 °F 30.1 in SSE 6.9 mph 11.4 mph 99% 0.06 in 0 W/m2
22:21 58.6 °F 58.5 °F 30.1 in SSE 5.4 mph 18.3 mph 99% 0.07 in 0 W/m2
22:27 59 °F 58.6 °F 30.1 in South 5.4 mph 13.6 mph 99% 0.07 in 0 W/m2
22:33 59 °F 58.6 °F 30.1 in South 7.6 mph 15.2 mph 99% 0.08 in 0 W/m2
22:39 59 °F 58.6 °F 30.1 in South 7.6 mph 15.9 mph 99% 0.07 in 0 W/m2
22:45 58.8 °F 58.6 °F 30.1 in SSE 10.7 mph 15.9 mph 99% 0.09 in 0 W/m2
22:51 58.8 °F 58.6 °F 30.1 in SSE 6.9 mph 15.9 mph 99% 0.09 in 0 W/m2
22:57 58.8 °F 58.6 °F 30.1 in SSE 9.8 mph 21.3 mph 99% 0.11 in 0 W/m2
23:03 59 °F 58.6 °F 30.1 in South 8.3 mph 21.3 mph 99% 0.11 in 0 W/m2
23:09 59 °F 58.6 °F 30.1 in SSE 8.3 mph 19 mph 99% 0.12 in 0 W/m2
23:15 59 °F 58.6 °F 30.1 in SSE 9.2 mph 19 mph 99% 0.11 in 0 W/m2
23:21 59.2 °F 58.8 °F 30.1 in SSE 7.6 mph 16.8 mph 99% 0.11 in 0 W/m2
23:27 59 °F 58.6 °F 30.1 in SSE 8.3 mph 16.8 mph 99% 0.08 in 0 W/m2
23:33 59 °F 58.6 °F 30.1 in SSE 8.3 mph 18.3 mph 99% 0.09 in 0 W/m2
23:40 59.2 °F 58.8 °F 30 in SSE 2.2 mph 18.3 mph 99% 0.11 in 0 W/m2
23:46 59.2 °F 58.8 °F 30 in SSE 9.8 mph 14.5 mph 99% 0.11 in 0 W/m2
23:52 59 °F 58.6 °F 30.1 in SSE 6 mph 16.8 mph 99% 0.12 in 0 W/m2
23:58 58.8 °F 58.6 °F 30.1 in ESE 4.5 mph 15.9 mph 99% 0.11 in 0 W/m2
Northern Hawkes Bay. New Zealand Historic Data
Compliments of Weather Underground - 2 mb